createdAt,value
2022-10-18T00:01:04.330Z,4.78
2022-10-18T00:03:34.351Z,4.93
2022-10-18T00:06:04.517Z,5.57
2022-10-18T00:08:31.627Z,4.82
2022-10-18T00:10:58.310Z,4.72
2022-10-18T00:13:27.282Z,5.07
2022-10-18T00:15:59.164Z,5.28
2022-10-18T00:18:28.632Z,4.60
2022-10-18T00:21:08.650Z,4.15
2022-10-18T00:23:36.582Z,5.25
2022-10-18T00:26:11.831Z,5.35
2022-10-18T00:28:39.184Z,5.05
2022-10-18T00:31:30.359Z,5.35
2022-10-18T00:33:59.621Z,4.32
2022-10-18T00:36:27.910Z,4.03
2022-10-18T00:38:57.230Z,5.47
2022-10-18T00:41:28.531Z,5.00
2022-10-18T00:44:04.992Z,3.45
2022-10-18T00:46:41.982Z,4.38
2022-10-18T00:49:33.162Z,5.68
2022-10-18T00:52:13.103Z,5.90
2022-10-18T00:54:44.373Z,4.30
2022-10-18T00:57:12.645Z,5.63
2022-10-18T00:59:40.226Z,6.57
2022-10-18T01:02:07.958Z,8.02
2022-10-18T01:04:40.562Z,7.68
2022-10-18T01:07:22.179Z,5.80
2022-10-18T01:10:09.432Z,4.57
2022-10-18T01:12:48.042Z,5.32
2022-10-18T01:15:23.577Z,10.57
2022-10-18T01:18:17.532Z,12.15
2022-10-18T01:21:03.000Z,12.88
2022-10-18T01:24:11.619Z,6.72
2022-10-18T01:27:08.622Z,6.60
2022-10-18T01:30:11.207Z,6.38
2022-10-18T01:32:44.421Z,8.38
2022-10-18T01:35:22.317Z,9.45
2022-10-18T01:37:52.545Z,10.15
2022-10-18T01:40:21.967Z,6.18
2022-10-18T01:42:53.770Z,4.43
2022-10-18T01:45:23.310Z,4.38
2022-10-18T01:47:55.629Z,3.30
2022-10-18T01:50:35.523Z,2.90
2022-10-18T01:53:02.351Z,4.50
2022-10-18T01:55:42.005Z,3.83
2022-10-18T01:58:26.293Z,3.47
2022-10-18T02:01:06.771Z,4.05
2022-10-18T02:03:43.231Z,5.00
2022-10-18T02:06:16.929Z,4.82
2022-10-18T02:08:45.762Z,4.93
2022-10-18T02:11:15.438Z,3.67
2022-10-18T02:13:46.873Z,4.03
2022-10-18T02:16:49.955Z,4.20
2022-10-18T02:19:20.433Z,4.70
2022-10-18T02:21:51.663Z,3.40
2022-10-18T02:24:26.360Z,3.78
2022-10-18T02:26:55.516Z,4.65
2022-10-18T02:29:25.104Z,4.30
2022-10-18T02:32:04.975Z,3.92
2022-10-18T02:34:42.800Z,3.92
2022-10-18T02:37:13.809Z,4.57
2022-10-18T02:39:51.531Z,3.72
2022-10-18T02:42:22.185Z,5.10
2022-10-18T02:44:48.824Z,4.55
2022-10-18T02:47:15.503Z,4.18
2022-10-18T02:49:44.658Z,4.38
2022-10-18T02:52:11.336Z,3.55
2022-10-18T02:54:40.909Z,4.78
2022-10-18T02:57:09.873Z,4.07
2022-10-18T02:59:36.583Z,4.70
2022-10-18T03:02:05.698Z,5.03
2022-10-18T03:04:32.364Z,4.18
2022-10-18T03:07:01.442Z,4.50
2022-10-18T03:09:30.316Z,4.28
2022-10-18T03:11:57.761Z,3.22
2022-10-18T03:14:24.500Z,4.28
2022-10-18T03:16:51.344Z,4.95
2022-10-18T03:19:18.005Z,3.50
2022-10-18T03:21:47.246Z,4.28
2022-10-18T03:24:16.443Z,3.53
2022-10-18T03:26:45.333Z,4.20
2022-10-18T03:29:14.736Z,4.60
2022-10-18T03:31:43.707Z,4.28
2022-10-18T03:34:12.543Z,5.63
2022-10-18T03:36:41.572Z,4.10
2022-10-18T03:39:08.322Z,5.10
2022-10-18T03:41:35.015Z,4.82
2022-10-18T03:44:08.932Z,4.70
2022-10-18T03:46:35.575Z,4.18
2022-10-18T03:49:04.528Z,4.30
2022-10-18T03:51:31.241Z,4.28
2022-10-18T03:53:57.890Z,4.72
2022-10-18T03:56:24.559Z,4.50
2022-10-18T03:58:57.079Z,4.43
2022-10-18T04:01:23.925Z,5.65
2022-10-18T04:03:50.640Z,4.30
2022-10-18T04:06:19.789Z,3.85
2022-10-18T04:08:51.131Z,3.90
2022-10-18T04:11:19.929Z,3.40
2022-10-18T04:13:46.659Z,3.97
2022-10-18T04:16:15.591Z,3.70
2022-10-18T04:18:47.195Z,3.83
2022-10-18T04:21:14.311Z,4.80
2022-10-18T04:23:45.351Z,4.05
2022-10-18T04:26:19.933Z,4.68
2022-10-18T04:28:46.919Z,4.53
2022-10-18T04:31:15.872Z,5.05
2022-10-18T04:33:44.976Z,5.15
2022-10-18T04:36:11.814Z,4.28
2022-10-18T04:38:38.620Z,4.95
2022-10-18T04:41:08.457Z,4.70
2022-10-18T04:43:35.189Z,4.03
2022-10-18T04:46:01.945Z,3.70
2022-10-18T04:48:28.668Z,4.85
2022-10-18T04:50:57.773Z,4.28
2022-10-18T04:53:26.588Z,4.18
2022-10-18T04:55:53.300Z,3.90
2022-10-18T04:58:22.565Z,4.30
2022-10-18T05:00:49.875Z,3.95
2022-10-18T05:03:16.851Z,4.32
2022-10-18T05:06:02.693Z,4.05
2022-10-18T05:08:33.408Z,3.97
2022-10-18T05:11:00.380Z,4.65
2022-10-18T05:13:31.826Z,4.10
2022-10-18T05:16:03.217Z,5.20
2022-10-18T05:18:34.928Z,3.65
2022-10-18T05:21:03.990Z,4.85
2022-10-18T05:23:33.202Z,4.00
2022-10-18T05:26:09.541Z,4.50
2022-10-18T05:28:43.505Z,4.40
2022-10-18T05:31:16.037Z,4.13
2022-10-18T05:33:42.793Z,3.80
2022-10-18T05:36:10.159Z,3.92
2022-10-18T05:38:43.475Z,4.50
2022-10-18T05:41:11.550Z,4.45
2022-10-18T05:43:39.409Z,5.40
2022-10-18T05:46:11.895Z,3.90
2022-10-18T05:48:46.442Z,4.80
2022-10-18T05:51:17.849Z,4.50
2022-10-18T05:53:46.821Z,5.03
2022-10-18T05:56:14.432Z,4.43
2022-10-18T05:58:42.499Z,4.35
2022-10-18T06:01:12.550Z,4.50
2022-10-18T06:03:39.326Z,2.95
2022-10-18T06:06:15.626Z,6.38
2022-10-18T06:08:45.127Z,5.40
2022-10-18T06:11:19.247Z,5.63
2022-10-18T06:13:48.968Z,5.88
2022-10-18T06:16:20.424Z,5.15
2022-10-18T06:18:55.708Z,5.53
2022-10-18T06:21:25.819Z,7.57
2022-10-18T06:23:57.405Z,5.57
2022-10-18T06:26:27.542Z,6.35
2022-10-18T06:28:54.347Z,6.10
2022-10-18T06:31:23.519Z,6.18
2022-10-18T06:33:54.895Z,5.28
2022-10-18T06:36:24.379Z,5.57
2022-10-18T06:38:54.330Z,5.25
2022-10-18T06:41:21.984Z,4.07
2022-10-18T06:43:57.449Z,6.22
2022-10-18T06:46:28.935Z,4.82
2022-10-18T06:48:57.788Z,5.32
2022-10-18T06:51:26.726Z,4.88
2022-10-18T06:54:16.405Z,6.10
2022-10-18T06:56:44.530Z,4.97
2022-10-18T06:59:13.688Z,5.45
2022-10-18T07:01:43.552Z,6.47
2022-10-18T07:04:12.564Z,6.15
2022-10-18T07:06:39.287Z,5.93
2022-10-18T07:09:06.023Z,5.63
2022-10-18T07:11:34.964Z,5.30
2022-10-18T07:14:03.151Z,4.90
2022-10-18T07:16:30.601Z,3.38
2022-10-18T07:18:59.893Z,3.58
2022-10-18T07:21:29.776Z,3.38
2022-10-18T07:23:59.473Z,2.85
2022-10-18T07:26:29.233Z,3.60
2022-10-18T07:29:08.203Z,3.45
2022-10-18T07:31:40.908Z,3.53
2022-10-18T07:34:12.603Z,4.30
2022-10-18T07:36:42.159Z,4.20
2022-10-18T07:39:09.301Z,3.72
2022-10-18T07:41:36.230Z,3.90
2022-10-18T07:44:03.970Z,4.25
2022-10-18T07:46:35.356Z,4.75
2022-10-18T07:49:04.249Z,3.75
2022-10-18T07:51:34.699Z,4.28
2022-10-18T07:54:04.009Z,4.07
2022-10-18T07:56:33.154Z,4.55
2022-10-18T07:58:59.909Z,4.35
2022-10-18T08:01:26.666Z,3.60
2022-10-18T08:03:53.714Z,4.15
2022-10-18T08:06:22.557Z,3.47
2022-10-18T08:08:49.328Z,3.83
2022-10-18T08:11:22.076Z,3.03
2022-10-18T08:13:51.462Z,3.20
2022-10-18T08:16:21.519Z,3.47
2022-10-18T08:18:48.681Z,6.63
2022-10-18T08:21:18.602Z,5.65
2022-10-18T08:23:49.008Z,5.03
2022-10-18T08:26:20.731Z,5.57
2022-10-18T08:28:54.345Z,5.10
2022-10-18T08:31:31.011Z,4.82
2022-10-18T08:33:57.696Z,4.20
2022-10-18T08:36:25.045Z,4.38
2022-10-18T08:38:51.991Z,3.55
2022-10-18T08:41:33.795Z,3.15
2022-10-18T08:44:26.126Z,3.20
2022-10-18T08:49:34.602Z,2.80
2022-10-18T08:52:05.997Z,2.17
2022-10-18T08:54:41.823Z,2.42
2022-10-18T08:57:18.249Z,2.70
2022-10-18T08:59:44.977Z,2.28
2022-10-18T09:02:20.918Z,2.17
2022-10-18T09:05:15.296Z,2.30
2022-10-18T09:07:45.133Z,2.28
2022-10-18T09:10:39.215Z,2.38
2022-10-18T09:13:32.198Z,2.40
2022-10-18T09:15:59.849Z,2.20
2022-10-18T09:18:35.747Z,2.17
2022-10-18T09:21:37.334Z,2.03
2022-10-18T09:24:04.221Z,2.03
2022-10-18T09:26:39.853Z,2.38
2022-10-18T09:29:27.676Z,2.58
2022-10-18T09:32:06.402Z,2.10
2022-10-18T09:35:14.333Z,2.30
2022-10-18T09:37:44.047Z,2.72
2022-10-18T09:40:23.093Z,2.30
2022-10-18T09:43:00.872Z,2.20
2022-10-18T09:45:53.220Z,2.25
2022-10-18T09:48:28.889Z,2.47
2022-10-18T09:51:03.394Z,2.33
2022-10-18T09:53:54.882Z,3.05
2022-10-18T09:56:29.707Z,2.08
2022-10-18T09:58:56.617Z,2.15
2022-10-18T10:01:31.441Z,2.60
2022-10-18T10:04:00.335Z,2.28
2022-10-18T10:06:31.911Z,2.45
2022-10-18T10:09:04.967Z,1.90
2022-10-18T10:11:45.697Z,2.05
2022-10-18T10:14:25.480Z,2.20
2022-10-18T10:16:52.405Z,2.00
2022-10-18T10:19:59.611Z,2.55
2022-10-18T10:22:38.833Z,3.00
2022-10-18T10:25:07.197Z,2.67
2022-10-18T10:27:43.314Z,2.30
2022-10-18T10:30:39.259Z,2.70
2022-10-18T10:33:31.717Z,2.60
2022-10-18T10:36:00.036Z,2.67
2022-10-18T10:38:30.542Z,2.20
2022-10-18T10:40:57.843Z,2.40
2022-10-18T10:43:40.449Z,2.75
2022-10-18T10:46:09.585Z,2.60
2022-10-18T10:48:48.651Z,2.40
2022-10-18T10:51:31.177Z,2.40
2022-10-18T10:54:00.123Z,2.08
2022-10-18T10:56:28.723Z,2.70
2022-10-18T10:59:00.877Z,2.90
2022-10-18T11:01:31.074Z,2.50
2022-10-18T11:04:02.685Z,2.70
2022-10-18T11:07:09.043Z,2.75
2022-10-18T11:09:50.880Z,2.50
2022-10-18T11:12:52.006Z,2.60
2022-10-18T11:15:35.922Z,2.15
2022-10-18T11:18:32.841Z,2.90
2022-10-18T11:21:08.142Z,2.25
2022-10-18T11:23:37.455Z,2.50
2022-10-18T11:26:13.268Z,2.30
2022-10-18T11:28:52.010Z,2.28
2022-10-18T11:31:24.625Z,2.13
2022-10-18T11:34:20.459Z,2.40
2022-10-18T11:40:27.917Z,2.75
2022-10-18T11:43:00.784Z,2.60
2022-10-18T11:45:27.462Z,2.22
2022-10-18T11:48:36.233Z,1.98
2022-10-18T11:51:14.254Z,2.10
2022-10-18T11:54:01.798Z,2.10
2022-10-18T11:56:49.829Z,2.75
2022-10-18T11:59:31.002Z,2.30
2022-10-18T12:02:26.132Z,2.13
2022-10-18T12:05:18.895Z,2.40
2022-10-18T12:08:02.188Z,2.10
2022-10-18T12:10:45.988Z,1.90
2022-10-18T12:13:35.408Z,2.20
2022-10-18T12:16:09.477Z,2.00
2022-10-18T12:18:43.283Z,2.67
2022-10-18T12:21:14.460Z,2.08
2022-10-18T12:23:44.062Z,2.70
2022-10-18T12:26:13.630Z,2.85
2022-10-18T12:29:04.921Z,1.90
2022-10-18T12:31:39.744Z,2.30
2022-10-18T12:34:21.467Z,2.25
2022-10-18T12:37:17.035Z,2.33
2022-10-18T12:40:18.760Z,2.50
2022-10-18T12:45:32.971Z,2.70
2022-10-18T12:48:03.887Z,2.17
2022-10-18T12:50:35.026Z,2.55
2022-10-18T12:53:16.800Z,2.50
2022-10-18T12:55:48.934Z,2.15
2022-10-18T12:58:15.663Z,2.50
2022-10-18T13:00:42.290Z,2.10
2022-10-18T13:03:18.026Z,2.60
2022-10-18T13:05:56.185Z,2.47
2022-10-18T13:08:30.118Z,2.58
2022-10-18T13:11:11.349Z,2.50
2022-10-18T13:14:28.273Z,2.30
2022-10-18T13:16:57.836Z,2.53
2022-10-18T13:19:33.247Z,2.50
2022-10-18T13:22:11.879Z,2.60
2022-10-18T13:25:04.231Z,2.35
2022-10-18T13:27:39.834Z,2.30
2022-10-18T13:30:18.525Z,2.53
2022-10-18T13:33:22.066Z,2.20
2022-10-18T13:36:05.344Z,2.15
2022-10-18T13:38:44.799Z,2.35
2022-10-18T13:41:13.038Z,3.65
2022-10-18T13:44:13.026Z,2.00
2022-10-18T13:46:39.762Z,2.40
2022-10-18T13:49:29.678Z,2.17
2022-10-18T13:52:11.253Z,1.83
2022-10-18T13:54:59.233Z,1.90
2022-10-18T13:57:53.290Z,2.20
2022-10-18T14:00:49.033Z,1.73
2022-10-18T14:03:57.023Z,1.98
2022-10-18T14:06:31.122Z,1.90
2022-10-18T14:09:09.565Z,1.67
2022-10-18T14:11:56.502Z,1.75
2022-10-18T14:14:42.749Z,1.75
2022-10-18T14:17:44.292Z,1.50
2022-10-18T14:20:36.905Z,1.70
2022-10-18T14:23:21.218Z,1.70
2022-10-18T14:25:48.516Z,1.40
2022-10-18T14:28:18.520Z,1.80
2022-10-18T14:30:56.284Z,1.60
2022-10-18T14:33:35.245Z,1.70
2022-10-18T14:36:12.936Z,1.40
2022-10-18T14:38:47.537Z,1.50
2022-10-18T14:41:16.387Z,1.77
2022-10-18T14:43:48.379Z,1.48
2022-10-18T14:46:23.825Z,1.88
2022-10-18T14:48:58.119Z,1.70
2022-10-18T14:51:28.309Z,1.50
2022-10-18T14:53:55.750Z,1.50
2022-10-18T14:56:42.776Z,1.80
2022-10-18T14:59:27.094Z,1.48
2022-10-18T15:02:10.845Z,1.50
2022-10-18T15:04:37.535Z,1.70
2022-10-18T15:07:07.028Z,1.38
2022-10-18T15:09:36.006Z,1.30
2022-10-18T15:12:05.541Z,1.80
2022-10-18T15:14:38.890Z,1.30
2022-10-18T15:17:16.610Z,2.10
2022-10-18T15:20:04.991Z,1.77
2022-10-18T15:22:33.744Z,1.67
2022-10-18T15:25:22.049Z,2.00
2022-10-18T15:27:55.418Z,2.03
2022-10-18T15:30:43.772Z,2.00
2022-10-18T15:33:25.311Z,1.92
2022-10-18T15:35:53.487Z,1.92
2022-10-18T15:38:36.227Z,1.77
2022-10-18T15:41:39.076Z,1.52
2022-10-18T15:44:24.332Z,1.80
2022-10-18T15:46:56.925Z,2.03
2022-10-18T15:49:45.509Z,2.17
2022-10-18T15:52:36.644Z,1.80
2022-10-18T15:55:30.191Z,1.90
2022-10-18T16:00:38.115Z,2.33
2022-10-18T16:03:08.706Z,2.38
2022-10-18T16:05:37.319Z,2.13
2022-10-18T16:08:04.265Z,2.13
2022-10-18T16:10:33.349Z,2.30
2022-10-18T16:13:02.490Z,2.30
2022-10-18T16:15:31.681Z,2.08
2022-10-18T16:18:03.070Z,1.92
2022-10-18T16:20:31.950Z,2.53
2022-10-18T16:22:58.639Z,2.25
2022-10-18T16:25:25.478Z,2.50
2022-10-18T16:27:54.614Z,2.60
2022-10-18T16:30:24.959Z,2.97
2022-10-18T16:32:51.691Z,5.30
2022-10-18T16:35:20.899Z,3.50
2022-10-18T16:37:50.048Z,3.90
2022-10-18T16:40:24.268Z,2.70
2022-10-18T16:42:53.827Z,2.08
2022-10-18T16:45:20.599Z,2.70
2022-10-18T16:47:47.427Z,2.20
2022-10-18T16:50:21.791Z,2.38
2022-10-18T16:52:50.990Z,2.95
2022-10-18T16:55:24.730Z,2.53
2022-10-18T16:57:51.825Z,2.40
2022-10-18T17:00:25.197Z,2.53
2022-10-18T17:02:52.118Z,2.30
2022-10-18T17:05:23.088Z,2.20
2022-10-18T17:07:50.092Z,3.28
2022-10-18T17:10:21.478Z,2.60
2022-10-18T17:12:50.606Z,2.60
2022-10-18T17:15:22.445Z,2.72
2022-10-18T17:20:27.251Z,2.53
2022-10-18T17:22:56.180Z,2.42
2022-10-18T17:25:22.899Z,2.70
2022-10-18T17:27:51.768Z,3.30
2022-10-18T17:30:18.602Z,2.97
2022-10-18T17:32:45.413Z,4.68
2022-10-18T17:35:14.769Z,4.85
2022-10-18T17:37:48.105Z,3.55
2022-10-18T17:40:14.837Z,2.95
2022-10-18T17:42:41.592Z,4.28
2022-10-18T17:45:12.285Z,4.35
2022-10-18T17:47:41.222Z,3.60
2022-10-18T17:50:10.738Z,3.70
2022-10-18T17:52:46.605Z,3.90
2022-10-18T17:55:16.037Z,3.90
2022-10-18T17:57:42.922Z,5.47
2022-10-18T18:00:12.020Z,6.65
2022-10-18T18:02:41.808Z,8.70
2022-10-18T18:05:09.386Z,6.88
2022-10-18T18:07:38.449Z,4.03
2022-10-18T18:10:05.524Z,3.33
2022-10-18T18:12:34.707Z,3.80
2022-10-18T18:15:01.689Z,4.63
2022-10-18T18:17:33.966Z,4.50
2022-10-18T18:20:07.159Z,4.07
2022-10-18T18:22:36.006Z,3.70
2022-10-18T18:25:04.934Z,4.03
2022-10-18T18:27:31.655Z,4.18
2022-10-18T18:30:00.769Z,4.57
2022-10-18T18:32:29.673Z,3.30
2022-10-18T18:34:58.939Z,4.10
2022-10-18T18:37:25.678Z,3.50
2022-10-18T18:39:54.620Z,3.90
2022-10-18T18:42:22.527Z,3.10
2022-10-18T18:44:49.978Z,3.83
2022-10-18T18:47:21.609Z,3.55
2022-10-18T18:49:53.358Z,4.32
2022-10-18T18:52:20.057Z,3.58
2022-10-18T18:54:46.971Z,3.75
2022-10-18T18:57:15.882Z,4.00
2022-10-18T18:59:45.073Z,4.28
2022-10-18T19:02:11.785Z,4.00
2022-10-18T19:04:41.381Z,3.95
2022-10-18T19:07:08.200Z,3.90
2022-10-18T19:09:42.110Z,3.40
2022-10-18T19:12:15.315Z,2.83
2022-10-18T19:14:44.351Z,3.97
2022-10-18T19:17:15.751Z,4.25
2022-10-18T19:19:43.348Z,4.15
2022-10-18T19:22:12.425Z,3.72
2022-10-18T19:24:39.085Z,4.60
2022-10-18T19:27:12.729Z,3.60
2022-10-18T19:29:40.846Z,3.92
2022-10-18T19:32:14.951Z,4.35
2022-10-18T19:34:41.719Z,3.95
2022-10-18T19:37:13.273Z,4.63
2022-10-18T19:39:45.170Z,4.85
2022-10-18T19:42:19.214Z,4.70
2022-10-18T19:44:51.124Z,5.20
2022-10-18T19:47:22.615Z,4.85
2022-10-18T19:49:49.372Z,5.65
2022-10-18T19:52:18.572Z,6.25
2022-10-18T19:54:45.684Z,5.57
2022-10-18T19:57:14.738Z,5.47
2022-10-18T19:59:44.111Z,6.03
2022-10-18T20:02:14.703Z,5.15
2022-10-18T20:04:41.675Z,5.65
2022-10-18T20:07:11.372Z,5.75
2022-10-18T20:09:39.562Z,5.28
2022-10-18T20:12:06.356Z,5.43
2022-10-18T20:14:33.058Z,4.55
2022-10-18T20:16:59.970Z,4.70
2022-10-18T20:19:26.726Z,4.78
2022-10-18T20:21:57.854Z,4.75
2022-10-18T20:24:24.631Z,5.10
2022-10-18T20:29:20.757Z,5.55
2022-10-18T20:31:47.556Z,6.32
2022-10-18T20:34:16.383Z,6.53
2022-10-18T20:36:43.233Z,5.85
2022-10-18T20:39:12.231Z,5.10
2022-10-18T20:41:42.730Z,4.60
2022-10-18T20:44:16.042Z,5.28
2022-10-18T20:46:48.104Z,5.28
2022-10-18T20:49:18.184Z,5.18
2022-10-18T20:51:47.377Z,5.82
2022-10-18T20:54:20.923Z,6.68
2022-10-18T20:56:47.684Z,6.30
2022-10-18T20:59:14.712Z,6.10
2022-10-18T21:01:47.398Z,6.18
2022-10-18T21:04:14.235Z,7.03
2022-10-18T21:06:45.123Z,6.32
2022-10-18T21:09:18.089Z,6.82
2022-10-18T21:11:50.677Z,5.57
2022-10-18T21:14:24.261Z,6.40
2022-10-18T21:16:52.205Z,5.82
2022-10-18T21:19:26.602Z,5.25
2022-10-18T21:21:57.369Z,5.28
2022-10-18T21:24:25.648Z,5.75
2022-10-18T21:26:55.015Z,6.30
2022-10-18T21:29:24.522Z,5.97
2022-10-18T21:31:59.213Z,7.47
2022-10-18T21:34:26.598Z,8.35
2022-10-18T21:36:55.613Z,7.07
2022-10-18T21:39:25.698Z,6.10
2022-10-18T21:41:52.426Z,5.60
2022-10-18T21:44:26.034Z,7.63
2022-10-18T21:46:57.330Z,7.18
2022-10-18T21:49:29.017Z,7.38
2022-10-18T21:51:55.980Z,6.35
2022-10-18T21:54:22.642Z,7.07
2022-10-18T21:56:51.927Z,6.53
2022-10-18T21:59:18.606Z,7.40
2022-10-18T22:01:45.681Z,6.22
2022-10-18T22:04:23.332Z,6.82
2022-10-18T22:06:53.113Z,6.22
2022-10-18T22:09:23.237Z,6.25
2022-10-18T22:11:53.472Z,6.80
2022-10-18T22:14:21.282Z,7.07
2022-10-18T22:16:48.362Z,6.25
2022-10-18T22:19:17.225Z,5.68
2022-10-18T22:21:44.008Z,6.32
2022-10-18T22:24:10.798Z,5.57
2022-10-18T22:26:39.866Z,7.13
2022-10-18T22:29:10.257Z,5.97
2022-10-18T22:31:40.108Z,7.25
2022-10-18T22:34:13.991Z,6.35
2022-10-18T22:36:40.915Z,8.18
2022-10-18T22:39:08.858Z,8.07
2022-10-18T22:41:38.441Z,9.73
2022-10-18T22:44:05.235Z,7.00
2022-10-18T22:46:34.721Z,6.00
2022-10-18T22:49:01.494Z,5.63
2022-10-18T22:51:32.638Z,6.00
2022-10-18T22:54:01.622Z,6.70
2022-10-18T22:56:30.492Z,5.65
2022-10-18T22:58:57.359Z,6.45
2022-10-18T23:01:26.602Z,6.60
2022-10-18T23:04:00.150Z,6.43
2022-10-18T23:06:37.179Z,6.10
2022-10-18T23:09:12.685Z,5.95
2022-10-18T23:11:39.367Z,6.63
2022-10-18T23:14:09.976Z,6.25
2022-10-18T23:16:41.209Z,4.50
2022-10-18T23:19:10.051Z,7.43
2022-10-18T23:21:38.858Z,8.00
2022-10-18T23:24:07.764Z,8.35
2022-10-18T23:26:34.479Z,8.38
2022-10-18T23:29:03.943Z,8.20
2022-10-18T23:31:34.782Z,8.68
2022-10-18T23:34:06.188Z,7.60
2022-10-18T23:36:33.776Z,9.82
2022-10-18T23:39:01.036Z,9.75
2022-10-18T23:41:30.278Z,10.50
2022-10-18T23:43:59.613Z,8.57
2022-10-18T23:46:28.871Z,6.20
2022-10-18T23:48:57.766Z,11.00
2022-10-18T23:51:26.808Z,10.32
2022-10-18T23:53:53.517Z,5.85
2022-10-18T23:56:22.583Z,8.25
2022-10-18T23:58:54.000Z,6.20
